Time;durP1;ratioP1;P1;durP2;ratioP2;P2;SDS_P1;SDS_P2;PMS_P1;PMS_P2;Temp;Humidity;BMP_temperature;BMP_pressure;BME280_temperature;BME280_humidity;BME280_pressure;Samples;Min_cycle;Max_cycle;Signal;HPM_P1;HPM_P2
2022/04/22 00:02:05;;;;;;;16.38;7.63;;;9.20;99.90;;;;;;5069564;28;20038;-90
2022/04/22 00:04:31;;;;;;;10.95;7.20;;;9.20;99.90;;;;;;5052051;28;20051;-91
2022/04/22 00:06:57;;;;;;;14.57;7.68;;;9.10;99.90;;;;;;5035675;28;20086;-90
2022/04/22 00:09:23;;;;;;;14.00;7.53;;;9.40;99.90;;;;;;5052306;28;20100;-92
2022/04/22 00:11:48;;;;;;;13.00;7.97;;;9.10;99.90;;;;;;5054444;28;20115;-90
2022/04/22 00:14:14;;;;;;;13.43;7.65;;;9.10;99.90;;;;;;5050231;28;20071;-91
2022/04/22 00:16:40;;;;;;;13.15;8.30;;;9.10;99.90;;;;;;5071140;28;20039;-91
2022/04/22 00:19:06;;;;;;;14.65;8.40;;;9.00;99.90;;;;;;5076602;28;20049;-90
2022/04/22 00:21:32;;;;;;;16.55;8.45;;;8.90;99.90;;;;;;5068312;28;20042;-91
2022/04/22 00:23:58;;;;;;;12.52;8.32;;;9.00;99.90;;;;;;5054309;28;20399;-90
2022/04/22 00:26:23;;;;;;;17.30;9.00;;;9.20;99.90;;;;;;5055147;28;20053;-90
2022/04/22 00:28:51;;;;;;;17.33;9.40;;;9.00;99.90;;;;;;5026996;28;20069;-91
2022/04/22 00:31:17;;;;;;;18.33;8.85;;;9.00;99.90;;;;;;5052942;28;20515;-90
2022/04/22 00:33:43;;;;;;;14.38;8.63;;;8.90;99.90;;;;;;5052516;28;20032;-91
2022/04/22 00:36:08;;;;;;;16.55;8.85;;;9.00;99.90;;;;;;5051723;28;20496;-90
2022/04/22 00:38:34;;;;;;;18.25;9.35;;;8.90;99.90;;;;;;5048831;28;20072;-91
2022/04/22 00:41:00;;;;;;;20.05;11.00;;;8.90;99.90;;;;;;5049718;28;20055;-90
2022/04/22 00:43:26;;;;;;;17.38;9.52;;;9.00;99.90;;;;;;5069250;28;20036;-91
2022/04/22 00:45:54;;;;;;;18.40;9.60;;;8.90;99.90;;;;;;5036090;28;20063;-90
2022/04/22 00:48:21;;;;;;;16.30;9.63;;;8.90;99.90;;;;;;5037869;28;20127;-90
2022/04/22 00:50:47;;;;;;;19.52;9.70;;;9.20;99.90;;;;;;5035859;28;20052;-90
2022/04/22 00:53:13;;;;;;;15.18;9.40;;;8.70;99.90;;;;;;5054168;28;20107;-90
2022/04/22 00:55:42;;;;;;;17.02;9.85;;;8.70;99.90;;;;;;5035553;28;20538;-91
2022/04/22 00:58:09;;;;;;;23.38;10.10;;;8.80;99.90;;;;;;5052199;28;20082;-90
2022/04/22 01:00:36;;;;;;;17.02;9.88;;;8.50;99.90;;;;;;5035280;28;20048;-89
2022/04/22 01:03:03;;;;;;;19.08;9.70;;;8.50;99.90;;;;;;5051116;28;20467;-89
2022/04/22 01:10:59;;;;;;;19.20;9.98;;;8.20;99.90;;;;;;5060094;28;20036;-90
2022/04/22 01:13:25;;;;;;;21.67;10.70;;;8.20;99.90;;;;;;5053283;28;20923;-89
2022/04/22 01:15:50;;;;;;;20.58;11.18;;;8.20;99.90;;;;;;5069988;28;20078;-91
2022/04/22 01:18:17;;;;;;;21.80;12.10;;;8.30;99.90;;;;;;5055329;28;20058;-90
2022/04/22 01:20:43;;;;;;;23.73;12.82;;;8.30;99.90;;;;;;5054950;28;20036;-90
2022/04/22 01:23:09;;;;;;;19.63;11.50;;;8.30;99.90;;;;;;5042620;28;20047;-91
2022/04/22 01:25:35;;;;;;;20.38;11.35;;;8.30;99.90;;;;;;5066831;28;20047;-91
2022/04/22 01:28:02;;;;;;;23.63;12.13;;;8.40;99.90;;;;;;5035428;28;20052;-90
2022/04/22 01:30:28;;;;;;;18.40;11.10;;;8.40;99.90;;;;;;5035652;28;20041;-90
2022/04/22 01:32:57;;;;;;;25.55;12.18;;;8.30;99.90;;;;;;5064692;28;20029;-90
2022/04/22 01:35:24;;;;;;;23.75;12.43;;;8.30;99.90;;;;;;5061978;28;20097;-90
2022/04/22 01:37:51;;;;;;;25.60;11.30;;;8.30;99.90;;;;;;5019042;28;20098;-90
2022/04/22 01:40:17;;;;;;;19.02;12.55;;;8.30;99.90;;;;;;5067848;28;20445;-90
2022/04/22 01:42:43;;;;;;;21.40;11.82;;;8.30;99.90;;;;;;5035732;28;20109;-89
2022/04/22 01:45:10;;;;;;;22.38;11.73;;;8.20;99.90;;;;;;5046711;28;20032;-90
2022/04/22 01:47:36;;;;;;;20.83;11.27;;;8.20;99.90;;;;;;5034102;28;20065;-90
2022/04/22 01:50:02;;;;;;;19.48;11.30;;;8.20;99.90;;;;;;5035750;28;20076;-90
2022/04/22 01:52:29;;;;;;;20.73;11.82;;;8.20;99.90;;;;;;5035681;28;20079;-89
2022/04/22 01:54:56;;;;;;;20.13;11.13;;;8.30;99.90;;;;;;5052468;28;20469;-91
2022/04/22 01:57:22;;;;;;;21.45;11.60;;;8.20;99.90;;;;;;5035653;28;20116;-90
2022/04/22 01:59:48;;;;;;;20.50;11.02;;;8.20;99.90;;;;;;5035985;28;20115;-90
2022/04/22 02:02:17;;;;;;;20.55;11.13;;;8.10;99.90;;;;;;5052124;28;20041;-91
2022/04/22 02:04:44;;;;;;;23.15;10.93;;;8.10;99.90;;;;;;5051369;28;20688;-90
2022/04/22 02:07:10;;;;;;;23.10;11.35;;;8.00;99.90;;;;;;5067818;28;20072;-89
2022/04/22 02:09:36;;;;;;;18.85;10.85;;;8.00;99.90;;;;;;5051068;28;20123;-90
2022/04/22 02:12:05;;;;;;;23.67;10.98;;;8.00;99.90;;;;;;5034910;28;20571;-89
2022/04/22 02:14:31;;;;;;;19.67;10.52;;;7.90;99.90;;;;;;5050017;28;20059;-90
2022/04/22 02:16:56;;;;;;;21.92;11.18;;;7.90;99.90;;;;;;5028893;28;20032;-89
2022/04/22 02:19:22;;;;;;;20.58;11.10;;;7.80;99.90;;;;;;5025921;28;20033;-89
2022/04/22 02:21:49;;;;;;;19.85;11.45;;;7.80;99.90;;;;;;5034057;28;20785;-90
2022/04/22 02:24:15;;;;;;;24.13;11.48;;;8.00;99.90;;;;;;5032570;28;20120;-90
2022/04/22 02:29:26;;;;;;;20.05;11.13;;;7.70;99.90;;;;;;5070271;28;20056;-90
2022/04/22 02:31:52;;;;;;;15.82;10.20;;;7.60;99.90;;;;;;5055581;28;20051;-90
2022/04/22 02:34:19;;;;;;;21.73;10.57;;;7.60;99.90;;;;;;5054690;28;20048;-91
2022/04/22 02:36:45;;;;;;;17.30;10.15;;;7.60;99.90;;;;;;5068408;28;20037;-90
2022/04/22 02:39:11;;;;;;;21.90;11.13;;;7.60;99.90;;;;;;5049182;28;20039;-90
2022/04/22 02:47:06;;;;;;;20.52;10.90;;;7.60;99.90;;;;;;5062174;28;20047;-90
2022/04/22 02:49:31;;;;;;;16.35;10.65;;;7.70;99.90;;;;;;5023235;28;20296;-90
2022/04/22 02:51:57;;;;;;;19.13;10.77;;;7.60;99.90;;;;;;5042626;28;20791;-89
2022/04/22 02:54:23;;;;;;;18.42;10.65;;;7.60;99.90;;;;;;5039670;28;20032;-90
2022/04/22 02:56:53;;;;;;;19.63;10.57;;;7.60;99.90;;;;;;5039214;28;20042;-90
2022/04/22 02:59:19;;;;;;;19.65;10.38;;;7.50;99.90;;;;;;5055278;28;20156;-90
2022/04/22 03:01:45;;;;;;;19.55;10.20;;;7.90;99.90;;;;;;5037370;28;20064;-90
2022/04/22 03:04:11;;;;;;;17.55;10.38;;;7.50;99.90;;;;;;5037734;28;20039;-89
2022/04/22 03:06:37;;;;;;;20.63;10.63;;;7.40;99.90;;;;;;5035304;28;20038;-89
2022/04/22 03:09:04;;;;;;;21.17;10.32;;;7.90;99.90;;;;;;5037099;28;20036;-90
2022/04/22 03:11:30;;;;;;;18.15;9.65;;;7.40;99.90;;;;;;5055097;28;20119;-90
2022/04/22 03:13:55;;;;;;;18.08;10.75;;;7.30;99.90;;;;;;5063732;28;20055;-91
2022/04/22 03:16:25;;;;;;;17.60;9.55;;;7.30;99.90;;;;;;5059346;28;20027;-92
2022/04/22 03:18:52;;;;;;;17.60;9.95;;;7.30;99.90;;;;;;5039694;28;20127;-91
2022/04/22 03:21:18;;;;;;;15.88;10.23;;;7.20;99.90;;;;;;5077572;28;20039;-90
2022/04/22 03:23:43;;;;;;;18.50;9.98;;;7.20;99.90;;;;;;5026010;28;20497;-90
2022/04/22 03:26:09;;;;;;;14.95;9.50;;;7.10;99.90;;;;;;5054984;28;20038;-90
2022/04/22 03:28:35;;;;;;;23.77;9.88;;;7.20;99.90;;;;;;5047690;28;20083;-90
2022/04/22 03:31:01;;;;;;;17.75;9.82;;;7.70;99.90;;;;;;5039898;28;20138;-91
2022/04/22 03:33:27;;;;;;;17.83;9.80;;;7.40;99.90;;;;;;5036048;28;20493;-89
2022/04/22 03:35:53;;;;;;;17.58;8.48;;;7.50;99.90;;;;;;5051140;28;20047;-89
2022/04/22 03:38:20;;;;;;;15.30;8.57;;;7.40;99.90;;;;;;5053267;28;20044;-89
2022/04/22 03:40:47;;;;;;;14.57;8.13;;;7.00;99.90;;;;;;5037672;28;20100;-90
2022/04/22 03:43:14;;;;;;;15.30;9.07;;;6.90;99.90;;;;;;5035602;28;20063;-90
2022/04/22 03:45:40;;;;;;;13.70;8.45;;;7.30;99.90;;;;;;5036664;28;20032;-90
2022/04/22 03:48:07;;;;;;;13.25;7.78;;;6.90;99.90;;;;;;5053236;28;20123;-90
2022/04/22 03:50:33;;;;;;;12.75;8.45;;;6.90;99.90;;;;;;5053580;28;20052;-90
2022/04/22 03:52:59;;;;;;;15.82;8.80;;;6.90;99.90;;;;;;5035118;28;20440;-90
2022/04/22 03:55:24;;;;;;;18.77;8.40;;;6.80;99.90;;;;;;5039796;28;20032;-90
2022/04/22 04:00:34;;;;;;;15.02;7.50;;;6.70;99.90;;;;;;5056615;28;20140;-90
2022/04/22 04:03:01;;;;;;;13.85;8.00;;;7.10;99.90;;;;;;5020347;28;20454;-89
2022/04/22 04:05:27;;;;;;;11.80;8.38;;;6.60;99.90;;;;;;5037007;28;20038;-90
2022/04/22 04:07:53;;;;;;;13.10;7.63;;;7.10;99.90;;;;;;5051881;28;20119;-90
2022/04/22 04:15:59;;;;;;;14.75;6.93;;;6.40;99.90;;;;;;5071704;28;20405;-90
2022/04/22 04:18:26;;;;;;;12.75;7.32;;;6.90;99.90;;;;;;5040326;28;20047;-90
2022/04/22 04:23:37;;;;;;;12.45;7.20;;;6.30;99.90;;;;;;5053978;28;20052;-89
2022/04/22 04:26:03;;;;;;;12.85;7.57;;;6.50;99.90;;;;;;5053791;28;20043;-90
2022/04/22 04:28:29;;;;;;;11.10;6.18;;;6.30;99.90;;;;;;5053438;28;20048;-91
2022/04/22 04:30:57;;;;;;;12.40;7.07;;;6.70;99.90;;;;;;5069128;28;20048;-90
2022/04/22 04:33:23;;;;;;;15.60;7.07;;;6.20;99.90;;;;;;5040089;28;20135;-90
2022/04/22 04:35:50;;;;;;;11.30;6.70;;;6.30;99.90;;;;;;5039772;28;20121;-89
2022/04/22 04:38:16;;;;;;;14.02;7.13;;;6.20;99.90;;;;;;5041347;28;20029;-89
2022/04/22 04:40:43;;;;;;;12.13;6.18;;;6.30;99.90;;;;;;5054935;28;20062;-89
2022/04/22 04:43:09;;;;;;;12.52;6.75;;;6.30;99.90;;;;;;5055140;28;20028;-90
2022/04/22 04:45:35;;;;;;;10.93;6.57;;;6.20;99.90;;;;;;5053217;28;20097;-90
2022/04/22 04:48:01;;;;;;;11.27;6.43;;;6.20;99.90;;;;;;5078674;28;20447;-90
2022/04/22 04:50:27;;;;;;;13.38;6.55;;;6.20;99.90;;;;;;5057979;28;20031;-90
2022/04/22 04:52:53;;;;;;;12.80;6.30;;;6.30;99.90;;;;;;5056545;28;20650;-90
2022/04/22 04:55:19;;;;;;;11.55;6.72;;;6.30;99.90;;;;;;5037254;28;20036;-90
2022/04/22 04:57:45;;;;;;;11.63;6.32;;;6.40;99.90;;;;;;5026475;28;20044;-90
2022/04/22 05:00:11;;;;;;;12.05;6.72;;;6.40;99.90;;;;;;5042228;28;20032;-90
2022/04/22 05:02:38;;;;;;;11.23;6.35;;;6.50;99.90;;;;;;5040087;28;20178;-89
2022/04/22 05:05:05;;;;;;;11.85;6.35;;;6.50;99.90;;;;;;5057800;28;20047;-89
2022/04/22 05:07:32;;;;;;;10.15;5.97;;;6.60;99.90;;;;;;5074847;28;20033;-90
2022/04/22 05:09:58;;;;;;;14.05;6.53;;;6.70;99.90;;;;;;5039609;28;20032;-90
2022/04/22 05:12:23;;;;;;;9.90;5.75;;;6.80;99.90;;;;;;5038684;28;21047;-90
2022/04/22 05:14:49;;;;;;;11.45;6.60;;;6.70;99.90;;;;;;5058225;28;20554;-90
2022/04/22 05:17:15;;;;;;;9.13;5.72;;;6.80;99.90;;;;;;5057289;28;20062;-91
2022/04/22 05:19:41;;;;;;;8.70;5.68;;;6.70;99.90;;;;;;5056847;28;20036;-90
2022/04/22 05:22:06;;;;;;;9.43;6.05;;;6.70;99.90;;;;;;5081729;28;20054;-91
2022/04/22 05:24:32;;;;;;;12.77;6.07;;;6.80;99.90;;;;;;5060801;28;20096;-90
2022/04/22 05:26:59;;;;;;;8.80;5.50;;;6.80;99.90;;;;;;5023363;28;20148;-90
2022/04/22 05:34:54;;;;;;;10.05;6.28;;;7.30;99.90;;;;;;5051071;28;20040;-90
2022/04/22 05:37:20;;;;;;;10.52;5.97;;;7.00;99.90;;;;;;5039962;28;20113;-90
2022/04/22 05:39:46;;;;;;;10.10;5.72;;;7.00;99.90;;;;;;5037035;28;20115;-91
2022/04/22 05:42:12;;;;;;;9.82;5.20;;;7.00;99.90;;;;;;5054718;28;20566;-91
2022/04/22 05:44:38;;;;;;;11.00;5.60;;;7.10;99.90;;;;;;5026955;28;20161;-90
2022/04/22 05:47:05;;;;;;;8.85;5.65;;;7.80;99.90;;;;;;5040950;28;20047;-90
2022/04/22 05:49:32;;;;;;;8.55;6.00;;;7.10;99.90;;;;;;5057995;28;20044;-89
2022/04/22 05:51:57;;;;;;;13.68;5.50;;;7.00;99.90;;;;;;5041865;28;20481;-90
2022/04/22 05:54:23;;;;;;;8.15;5.30;;;7.20;99.90;;;;;;5057543;28;20047;-89
2022/04/22 05:56:49;;;;;;;7.97;5.45;;;7.20;99.90;;;;;;5054991;28;20097;-89
2022/04/22 05:59:14;;;;;;;9.23;5.63;;;7.40;99.90;;;;;;5040326;28;20159;-90
2022/04/22 06:01:41;;;;;;;12.07;5.90;;;7.30;99.90;;;;;;5075410;28;20040;-89
2022/04/22 06:04:07;;;;;;;9.20;6.10;;;7.30;99.90;;;;;;5065491;28;20027;-89
2022/04/22 06:06:32;;;;;;;9.10;5.88;;;7.40;99.90;;;;;;5065181;28;20040;-90
2022/04/22 06:11:42;;;;;;;10.40;5.90;;;7.60;99.90;;;;;;5082607;28;20024;-90
2022/04/22 06:14:09;;;;;;;9.10;5.57;;;8.00;99.90;;;;;;5071682;28;20102;-91
2022/04/22 06:16:36;;;;;;;9.45;5.30;;;7.60;99.90;;;;;;5059794;28;20078;-90
2022/04/22 06:19:02;;;;;;;10.60;5.47;;;7.60;99.90;;;;;;5063166;28;20058;-90
2022/04/22 06:21:29;;;;;;;9.18;5.63;;;7.70;99.90;;;;;;5080981;28;20051;-90
2022/04/22 06:23:54;;;;;;;9.43;4.90;;;7.80;99.90;;;;;;5063217;28;20044;-90
2022/04/22 06:26:20;;;;;;;10.05;5.35;;;7.80;99.90;;;;;;5062798;28;20378;-90
2022/04/22 06:28:46;;;;;;;11.05;5.80;;;8.20;99.90;;;;;;5043747;28;20085;-90
2022/04/22 06:31:12;;;;;;;10.45;5.45;;;8.00;99.90;;;;;;5042451;28;20068;-90
2022/04/22 06:33:38;;;;;;;7.88;5.00;;;8.00;99.90;;;;;;5043173;28;20036;-90
2022/04/22 06:36:12;;;;;;;8.30;5.20;;;8.00;99.90;;;;;;5060061;28;20036;-90
2022/04/22 06:38:39;;;;;;;9.73;5.55;;;8.40;99.90;;;;;;5071241;28;20046;-90
2022/04/22 06:46:34;;;;;;;10.18;5.07;;;8.30;99.90;;;;;;5061104;28;20037;-90
2022/04/22 06:49:01;;;;;;;10.57;5.57;;;8.50;99.90;;;;;;5056907;28;20040;-90
2022/04/22 06:51:27;;;;;;;13.35;5.25;;;8.60;99.90;;;;;;5040725;28;20044;-90
2022/04/22 06:53:53;;;;;;;10.23;4.78;;;8.60;99.90;;;;;;5075189;28;20043;-90
2022/04/22 06:56:28;;;;;;;10.23;5.43;;;8.80;99.90;;;;;;5043342;28;20485;-90
2022/04/22 06:58:54;;;;;;;7.70;4.80;;;8.90;99.90;;;;;;5055224;28;20050;-90
2022/04/22 07:01:19;;;;;;;8.25;5.28;;;9.00;99.90;;;;;;5039732;28;20036;-90
2022/04/22 07:03:45;;;;;;;10.32;5.45;;;9.10;99.90;;;;;;5057630;28;20040;-90
2022/04/22 07:06:11;;;;;;;7.63;5.00;;;9.20;99.90;;;;;;5037347;28;20052;-90
2022/04/22 07:08:37;;;;;;;8.25;5.40;;;9.30;99.90;;;;;;5033562;28;20048;-89
2022/04/22 07:11:06;;;;;;;9.35;5.50;;;9.40;99.90;;;;;;5042640;28;20040;-90
2022/04/22 07:13:32;;;;;;;10.95;5.60;;;9.60;99.90;;;;;;5075982;28;20075;-90
2022/04/22 07:15:59;;;;;;;7.80;5.65;;;9.80;99.90;;;;;;5090572;28;20024;-90
2022/04/22 07:18:25;;;;;;;7.30;5.07;;;10.20;99.90;;;;;;5100625;28;20077;-90
2022/04/22 07:20:51;;;;;;;6.88;4.80;;;10.90;99.90;;;;;;5037878;28;20049;-90
2022/04/22 07:23:17;;;;;;;8.68;4.90;;;11.90;99.90;;;;;;5038313;28;20039;-91
2022/04/22 07:25:45;;;;;;;7.53;4.50;;;12.70;99.90;;;;;;5065922;28;20047;-90
2022/04/22 07:28:14;;;;;;;7.25;4.40;;;13.30;99.90;;;;;;5058260;28;20054;-88
2022/04/22 07:30:45;;;;;;;6.47;4.18;;;13.80;99.30;;;;;;5070097;28;20477;-88
2022/04/22 07:33:12;;;;;;;8.27;4.47;;;14.30;98.50;;;;;;5078011;28;20123;-87
2022/04/22 07:35:38;;;;;;;5.28;4.18;;;14.60;96.80;;;;;;5040231;28;20543;-87
2022/04/22 07:38:03;;;;;;;6.93;4.18;;;14.70;97.40;;;;;;5074304;28;20044;-87
2022/04/22 07:40:29;;;;;;;5.35;3.63;;;15.00;96.50;;;;;;5054752;28;20032;-88
2022/04/22 07:48:26;;;;;;;13.02;4.00;;;15.80;95.00;;;;;;5078212;28;20052;-89
2022/04/22 07:50:54;;;;;;;8.98;4.05;;;16.00;94.10;;;;;;5067402;28;20140;-88
2022/04/22 07:53:21;;;;;;;7.80;4.20;;;16.50;93.80;;;;;;5063894;28;20046;-90
2022/04/22 07:55:48;;;;;;;7.55;4.13;;;16.50;93.00;;;;;;5061054;28;20031;-89
2022/04/22 07:58:15;;;;;;;5.05;3.63;;;16.60;92.00;;;;;;5046690;28;20069;-92
2022/04/22 08:00:41;;;;;;;10.48;3.33;;;16.90;91.80;;;;;;5047637;28;20043;-88
2022/04/22 08:03:16;;;;;;;5.68;3.75;;;16.80;91.00;;;;;;5052204;28;20035;-91
2022/04/22 08:05:42;;;;;;;7.03;3.38;;;16.80;91.10;;;;;;5060422;28;20039;-90
2022/04/22 08:08:09;;;;;;;5.72;3.35;;;17.00;89.60;;;;;;5060388;28;20040;-90
2022/04/22 08:10:35;;;;;;;8.15;3.35;;;17.00;90.30;;;;;;5029367;28;20028;-89
2022/04/22 08:13:05;;;;;;;5.80;3.20;;;16.90;88.70;;;;;;5063978;28;20036;-91
2022/04/22 08:15:31;;;;;;;8.93;3.25;;;16.80;89.20;;;;;;5063175;28;20504;-90
2022/04/22 08:17:57;;;;;;;6.95;3.15;;;16.80;89.20;;;;;;5035625;28;20036;-89
2022/04/22 08:20:22;;;;;;;6.07;2.90;;;17.30;89.30;;;;;;5047801;28;20055;-90
2022/04/22 08:22:48;;;;;;;6.57;3.50;;;17.50;89.10;;;;;;5045509;28;20398;-91
2022/04/22 08:25:14;;;;;;;7.13;3.42;;;17.80;88.90;;;;;;5029377;28;20055;-87
2022/04/22 08:27:41;;;;;;;4.07;3.08;;;18.00;85.90;;;;;;5046163;28;20615;-87
2022/04/22 08:30:09;;;;;;;4.35;2.90;;;18.00;85.00;;;;;;5058490;28;20052;-86
2022/04/22 08:32:35;;;;;;;5.40;2.95;;;18.10;85.10;;;;;;5059013;28;20614;-87
2022/04/22 08:35:01;;;;;;;4.90;3.30;;;18.00;82.50;;;;;;5045053;28;20040;-87
2022/04/22 08:37:26;;;;;;;5.25;3.33;;;18.10;83.40;;;;;;5046221;28;20101;-87
2022/04/22 08:39:54;;;;;;;5.75;2.97;;;18.10;84.20;;;;;;5045688;28;20491;-87
2022/04/22 08:42:23;;;;;;;6.50;3.17;;;17.90;83.30;;;;;;5027669;28;20452;-89
2022/04/22 08:44:50;;;;;;;4.25;2.97;;;17.80;82.80;;;;;;5043756;28;20040;-88
2022/04/22 08:50:02;;;;;;;5.57;3.20;;;18.00;81.90;;;;;;5059774;28;20032;-90
2022/04/22 08:52:32;;;;;;;7.07;3.03;;;18.20;82.00;;;;;;5030421;28;20511;-90
2022/04/22 08:54:59;;;;;;;5.22;3.10;;;18.20;79.90;;;;;;5046694;28;20085;-90
2022/04/22 08:57:25;;;;;;;7.05;3.20;;;18.30;81.70;;;;;;5030053;28;20038;-93
2022/04/22 08:59:51;;;;;;;8.40;2.95;;;18.50;81.20;;;;;;5031824;28;20040;-90
2022/04/22 09:02:20;;;;;;;8.27;3.20;;;18.90;80.00;;;;;;5028981;28;20497;-89
2022/04/22 09:04:46;;;;;;;3.55;2.80;;;19.00;80.20;;;;;;5045666;28;20043;-90
2022/04/22 09:07:14;;;;;;;4.75;3.33;;;19.20;79.60;;;;;;5045472;28;20109;-90
2022/04/22 09:09:40;;;;;;;4.55;3.13;;;19.30;78.80;;;;;;5043659;28;20051;-90
2022/04/22 09:12:11;;;;;;;6.93;2.95;;;19.60;77.90;;;;;;5041457;28;20044;-89
2022/04/22 09:14:44;;;;;;;6.30;3.00;;;19.40;77.10;;;;;;5057620;28;20047;-89
2022/04/22 09:17:16;;;;;;;5.75;3.38;;;19.60;76.40;;;;;;5047956;28;20068;-93
2022/04/22 09:19:44;;;;;;;6.30;2.93;;;19.70;76.10;;;;;;5049968;28;20033;-90
2022/04/22 09:22:10;;;;;;;6.53;3.20;;;19.70;76.10;;;;;;5036004;28;20039;-93
2022/04/22 09:25:05;;;;;;;6.20;3.00;;;19.90;76.10;;;;;;5035680;28;20486;-92
2022/04/22 09:27:38;;;;;;;8.40;2.67;;;19.90;74.10;;;;;;5034603;28;20319;-92
2022/04/22 09:30:10;;;;;;;8.73;3.15;;;19.70;73.00;;;;;;5033229;28;20114;-91
2022/04/22 09:32:39;;;;;;;5.40;3.03;;;19.70;75.40;;;;;;5052093;28;20064;-91
2022/04/22 09:35:20;;;;;;;6.57;2.72;;;19.60;72.30;;;;;;5038819;28;20093;-91
2022/04/22 09:43:23;;;;;;;5.68;3.30;;;19.00;71.80;;;;;;5074876;28;20079;-90
2022/04/22 09:45:56;;;;;;;4.95;3.22;;;19.00;74.50;;;;;;5047046;28;20047;-91
2022/04/22 09:48:22;;;;;;;4.95;2.90;;;19.10;73.90;;;;;;5059893;28;20043;-91
2022/04/22 09:50:52;;;;;;;5.95;2.88;;;19.00;75.10;;;;;;5059503;28;20037;-91
2022/04/22 09:53:34;;;;;;;3.47;2.67;;;19.00;75.10;;;;;;5072603;28;20583;-92
2022/04/22 09:56:08;;;;;;;5.88;3.00;;;19.20;74.60;;;;;;5045937;28;20032;-91
2022/04/22 09:58:35;;;;;;;5.80;2.80;;;19.30;74.00;;;;;;5065185;28;20083;-95
2022/04/22 10:01:05;;;;;;;7.53;3.72;;;19.50;73.70;;;;;;5078605;28;20040;-95
2022/04/22 10:03:37;;;;;;;4.15;2.67;;;19.20;74.00;;;;;;5054354;28;20040;-94
2022/04/22 10:06:06;;;;;;;6.00;3.40;;;19.50;74.90;;;;;;5044359;28;20126;-96
2022/04/22 10:08:36;;;;;;;5.32;2.80;;;19.60;74.10;;;;;;5078192;28;20038;-96
2022/04/22 10:11:06;;;;;;;5.30;3.25;;;19.30;73.60;;;;;;5064600;28;20068;-95
2022/04/22 10:13:39;;;;;;;6.90;3.60;;;19.10;74.00;;;;;;5061626;28;20036;-95
2022/04/22 10:16:08;;;;;;;5.78;3.67;;;19.20;73.70;;;;;;5078145;28;20085;-96
2022/04/22 10:18:35;;;;;;;7.95;3.50;;;18.90;74.80;;;;;;5078293;28;20043;-91
2022/04/22 10:21:02;;;;;;;5.13;3.13;;;18.90;73.30;;;;;;5059280;28;20051;-91
2022/04/22 10:23:30;;;;;;;6.60;3.38;;;18.90;74.10;;;;;;5055473;28;20532;-91
2022/04/22 10:25:56;;;;;;;3.60;3.28;;;19.00;73.90;;;;;;5072171;28;20036;-90
2022/04/22 10:28:24;;;;;;;8.30;3.80;;;19.00;75.20;;;;;;5071024;28;20106;-90
2022/04/22 10:30:52;;;;;;;8.55;3.78;;;19.00;75.90;;;;;;5041961;28;20050;-91
2022/04/22 10:33:23;;;;;;;14.85;3.47;;;19.00;75.00;;;;;;5075492;28;20552;-90
2022/04/22 10:35:56;;;;;;;7.70;3.30;;;19.00;73.70;;;;;;5077858;28;20091;-90
2022/04/22 10:38:39;;;;;;;6.85;3.55;;;19.10;73.90;;;;;;5103049;28;20020;-90
2022/04/22 10:41:19;;;;;;;5.68;3.58;;;19.20;72.10;;;;;;5084343;28;20052;-92
2022/04/22 10:47:13;;;;;;;6.13;3.50;;;19.20;75.50;;;;;;5077749;28;20051;-95
2022/04/22 10:49:40;;;;;;;7.18;3.75;;;19.40;74.80;;;;;;5064452;28;20063;-94
2022/04/22 10:52:19;;;;;;;7.13;3.47;;;19.70;73.40;;;;;;5093225;28;20024;-93
2022/04/22 10:54:54;;;;;;;4.63;3.13;;;19.90;73.60;;;;;;5079771;28;20055;-95
2022/04/22 10:57:21;;;;;;;6.65;3.75;;;20.00;71.10;;;;;;5074620;28;20103;-95
2022/04/22 11:00:04;;;;;;;5.60;3.65;;;20.30;73.00;;;;;;5069208;28;20092;-95
2022/04/22 11:02:32;;;;;;;5.65;3.42;;;20.30;71.70;;;;;;5066524;28;20063;-95
2022/04/22 11:05:25;;;;;;;5.53;3.55;;;20.40;71.60;;;;;;5067017;28;20457;-94
2022/04/22 11:07:51;;;;;;;9.00;3.63;;;20.60;72.50;;;;;;5083175;28;20498;-94
2022/04/22 11:10:17;;;;;;;4.82;3.90;;;20.40;70.90;;;;;;5072938;28;20040;-94
2022/04/22 11:12:58;;;;;;;5.88;4.00;;;20.30;72.10;;;;;;5049076;28;20040;-93
2022/04/22 11:15:42;;;;;;;6.72;3.92;;;20.00;71.80;;;;;;5098197;28;20047;-94
2022/04/22 11:18:09;;;;;;;7.18;3.67;;;19.90;71.50;;;;;;5080902;28;20067;-93
2022/04/22 11:20:44;;;;;;;7.55;4.00;;;19.80;73.60;;;;;;5047398;28;20504;-94
2022/04/22 11:23:14;;;;;;;10.82;4.00;;;19.80;73.10;;;;;;5081469;28;20036;-94
2022/04/22 11:25:41;;;;;;;8.43;4.35;;;19.80;73.50;;;;;;5062821;28;20127;-93
2022/04/22 11:28:10;;;;;;;6.70;4.15;;;19.70;73.90;;;;;;5061131;28;20131;-94
2022/04/22 11:30:37;;;;;;;5.25;3.55;;;19.70;74.20;;;;;;5061230;28;20097;-94
2022/04/22 11:33:22;;;;;;;7.50;4.30;;;19.60;74.00;;;;;;5077225;28;20058;-94
2022/04/22 11:35:59;;;;;;;8.27;3.88;;;19.60;72.80;;;;;;5077048;28;20144;-92
2022/04/22 11:38:25;;;;;;;7.93;3.78;;;19.50;73.60;;;;;;5059003;28;20044;-92
2022/04/22 11:40:51;;;;;;;9.70;4.00;;;19.40;72.50;;;;;;5074064;28;20122;-89
2022/04/22 11:43:18;;;;;;;5.35;4.30;;;19.40;72.60;;;;;;5056316;28;20561;-89
2022/04/22 11:45:46;;;;;;;9.32;4.30;;;19.50;71.60;;;;;;5057373;28;20050;-89
2022/04/22 11:48:14;;;;;;;5.95;3.70;;;19.50;72.80;;;;;;5058108;28;20047;-89
2022/04/22 11:50:42;;;;;;;7.95;3.60;;;19.50;73.60;;;;;;5069535;28;20123;-88
2022/04/22 11:53:17;;;;;;;6.70;4.22;;;19.60;73.60;;;;;;5053624;28;20072;-89
2022/04/22 11:55:44;;;;;;;10.02;4.35;;;19.60;74.50;;;;;;5072313;28;20040;-89
2022/04/22 11:58:11;;;;;;;7.30;4.60;;;19.60;73.50;;;;;;5056341;28;20108;-88
2022/04/22 12:06:14;;;;;;;8.65;4.35;;;19.80;71.80;;;;;;5073855;28;20036;-90
2022/04/22 12:08:53;;;;;;;9.75;4.55;;;20.10;73.30;;;;;;5041377;28;20040;-89
2022/04/22 12:11:20;;;;;;;6.85;4.07;;;19.80;71.30;;;;;;5066927;28;20048;-88
2022/04/22 12:13:49;;;;;;;8.85;4.55;;;19.90;72.50;;;;;;5048450;28;20558;-88
2022/04/22 12:16:19;;;;;;;11.60;5.00;;;19.70;73.60;;;;;;5053950;28;20077;-89
2022/04/22 12:18:53;;;;;;;9.05;4.90;;;19.60;71.40;;;;;;5057074;28;20053;-90
2022/04/22 12:21:21;;;;;;;8.07;5.22;;;19.80;73.90;;;;;;5073818;28;20044;-87
2022/04/22 12:23:49;;;;;;;8.30;5.03;;;19.90;73.10;;;;;;5072640;28;20070;-88
2022/04/22 12:26:17;;;;;;;10.85;5.30;;;19.90;73.40;;;;;;5073546;28;20035;-88
2022/04/22 12:29:06;;;;;;;5.95;5.05;;;20.00;74.10;;;;;;5072870;28;20091;-88
2022/04/22 12:31:33;;;;;;;8.05;4.75;;;20.10;72.80;;;;;;5069502;28;20564;-89
2022/04/22 12:34:04;;;;;;;8.30;5.35;;;20.20;74.30;;;;;;5041988;28;20040;-89
2022/04/22 12:36:34;;;;;;;7.05;5.88;;;20.20;72.20;;;;;;5069967;28;20504;-90
2022/04/22 12:39:00;;;;;;;10.45;5.45;;;20.10;73.10;;;;;;5064752;28;20039;-90
2022/04/22 12:41:25;;;;;;;8.07;5.20;;;20.00;73.20;;;;;;5071758;28;20040;-89
2022/04/22 12:43:53;;;;;;;8.82;5.97;;;19.70;73.30;;;;;;5050311;28;20043;-90
2022/04/22 12:52:12;;;;;;;8.52;5.70;;;19.00;74.50;;;;;;5057986;28;20048;-91
2022/04/22 12:54:40;;;;;;;8.63;5.53;;;18.80;74.70;;;;;;5072335;28;20039;-90
2022/04/22 12:57:10;;;;;;;11.95;6.05;;;18.50;74.70;;;;;;5059477;28;20040;-91
2022/04/22 12:59:44;;;;;;;9.77;6.22;;;18.50;75.80;;;;;;5067537;28;20036;-92
2022/04/22 13:02:11;;;;;;;10.45;6.25;;;18.40;77.00;;;;;;5055371;28;20040;-92
2022/04/22 13:04:58;;;;;;;11.80;6.95;;;18.30;76.70;;;;;;5089227;28;20042;-91
2022/04/22 13:07:25;;;;;;;11.57;6.38;;;18.10;75.80;;;;;;5084009;28;20044;-92
2022/04/22 13:09:51;;;;;;;9.98;5.95;;;18.00;76.20;;;;;;5072579;28;20094;-90
2022/04/22 13:12:17;;;;;;;11.82;6.80;;;17.90;76.80;;;;;;5071007;28;20609;-92
2022/04/22 13:14:43;;;;;;;9.57;6.25;;;17.90;77.80;;;;;;5076747;28;20096;-90
2022/04/22 13:17:24;;;;;;;113.20;11.38;;;18.20;78.80;;;;;;5065057;28;20119;-91
2022/04/22 13:19:50;;;;;;;8.05;6.00;;;18.80;76.70;;;;;;5068326;28;20286;-91
2022/04/22 13:22:16;;;;;;;9.02;5.80;;;19.20;76.00;;;;;;5064811;28;20043;-91
2022/04/22 13:24:44;;;;;;;12.68;6.13;;;19.60;75.90;;;;;;5049601;28;20032;-91
2022/04/22 13:27:11;;;;;;;10.65;6.00;;;19.40;74.30;;;;;;5054607;28;20055;-91
2022/04/22 13:29:37;;;;;;;12.07;6.38;;;19.10;74.50;;;;;;5042637;28;20040;-91
2022/04/22 13:32:03;;;;;;;11.45;5.45;;;18.70;75.40;;;;;;5042452;28;20040;-92
2022/04/22 13:34:29;;;;;;;11.05;6.45;;;18.50;75.30;;;;;;5075876;28;20047;-91
2022/04/22 13:36:55;;;;;;;8.18;5.43;;;18.20;75.60;;;;;;5055916;28;20397;-91
2022/04/22 13:39:20;;;;;;;10.70;5.85;;;18.00;76.10;;;;;;5066635;28;20047;-91
2022/04/22 13:41:46;;;;;;;8.25;5.10;;;17.70;77.10;;;;;;5059135;28;20036;-92
2022/04/22 13:44:12;;;;;;;10.50;5.72;;;17.50;76.50;;;;;;5060676;28;20035;-93
2022/04/22 13:52:21;;;;;;;16.10;5.57;;;17.60;77.40;;;;;;5081684;28;20150;-93
2022/04/22 13:54:47;;;;;;;8.45;5.32;;;17.40;77.20;;;;;;5060200;28;20030;-93
2022/04/22 13:57:13;;;;;;;20.15;6.30;;;17.40;78.30;;;;;;5091194;28;20121;-92
2022/04/22 13:59:38;;;;;;;8.35;5.10;;;18.30;78.10;;;;;;5064368;28;20074;-91
2022/04/22 14:02:04;;;;;;;9.45;5.65;;;18.70;75.60;;;;;;5061471;28;20036;-92